Thursday, February 22, 2018, 5:12 PM GMT
Back to Local

CYQM, Moncton, N. B.

Location: , , Canada Lat: 46.117
Local Time: 5:12 PM GMT (17:12 GMT) Lon: -64.683
Time Zone: GMT Elev: 232 ft

Show me the last for .
Show Decoded

2018-02-22 17:00 METAR CYQM 221700Z 33011KT 15SM FEW120 BKN250 M02/M14 A3053 RMK AC1CI7 AC TR CS
                 ASOCTD SLP345 =
2018-02-22 16:00 METAR CYQM 221600Z 36006KT 320V020 15SM FEW040 FEW250 M03/M14 A3056 RMK SC1CI2
                 SC TR SLP355 =
2018-02-22 15:00 METAR CYQM 221500Z 33007KT 15SM FEW035 FEW160 FEW250 M04/M13 A3056 RMK SC1AC1CI2
                 SC TR AC TR SLP352 =
2018-02-22 14:00 METAR CYQM 221400Z 36009KT 15SM FEW035 FEW240 M05/M13 A3055 RMK SC1CI1 SC TR
                 SLP351 =
2018-02-22 13:00 METAR CYQM 221300Z 32014KT 15SM FEW030 FEW070 FEW240 M05/M13 A3054 RMK CU1AC1CI1
                 CU TR AC TR SLP346 =
2018-02-22 12:00 METAR CYQM 221200Z 30011KT 15SM FEW200 M05/M13 A3051 RMK CI1 SLP338 =
2018-02-22 11:00 METAR CYQM 221100Z 29013KT 15SM FEW100 M05/M13 A3049 RMK AC1 SLP329 =
2018-02-22 10:00 METAR CYQM 221000Z 31016G23KT 15SM SKC M04/M13 A3045 RMK SLP315 =
2018-02-22 09:00 METAR CYQM 220900Z 29014G20KT 15SM SKC M03/M12 A3041 RMK SLP301 =
2018-02-22 08:00 METAR CYQM 220800Z 31010G16KT 260V330 15SM SKC M02/M10 A3036 RMK PRESRR SLP286 =
2018-02-22 07:00 METAR CYQM 220700Z 31014G22KT 15SM SKC M00/M09 A3033 RMK PRESRR SLP274 =
2018-02-22 06:00 METAR CYQM 220600Z 30014G20KT 15SM SKC 01/M07 A3027 RMK SLP255 =
2018-02-22 05:00 METAR CYQM 220500Z 30015G31KT 15SM SKC 02/M06 A3021 RMK PRESRR SLP234 =
2018-02-22 04:37 METAR CYQM 220437Z 30019KT 15SM SKC 02/M07 A3019 RMK SLP226 =
2018-02-22 04:00 METAR CYQM 220400Z 30021G27KT 15SM SCT048 04/M06 A3015 RMK SC3 PRESRR SLP212 =

Support USWX by starting your Amazon purchase here.